Jonesboro Muni Information

FAA: JBR - ICAO: KJBR

Jonesboro Muni (Airport) Location

State Arkansas
County Craighead
City Jonesboro
Jonesboro Muni (Airport) is 3 miles east of Jonesboro, AR.
Latitude 35-49-54.1600N
Longitude 090-38-47.1190W
Elevation 262ft

Jonesboro Muni METARs

METAR KJBR 032153Z AUTO 20012KT 10SM CLR 22/16 A2993 RMK AO2 SLP134 T02170156 $
Altimeter 29.93"
Temperature 21.7°C (71.1°F)
Wind 200° at 12KT
Clouds Skies are clear.
Visibility 10.0mi
Time observed: 2021-12-03T21:53:00Z

Jonesboro Muni (Airport) Details

Status Operational
Activation April 1940
Ownership Public
Usage Public
Chart MEMPHIS
ATC on-site No
Beacon schedule sunset-sunrise
Beacon color clear green

Jonesboro Muni (Airport) Contacts

Owner CITY OF JONESBORO
Owner address PO BOX 1845, JONESBORO, AR 72403
Owner phone 870-932-1052
Manager CHIEF OF AFLD MANAGEMENT
Manager address LITTLE ROCK AFB, JACKSONVILLE, AR 72076
Manager phone 501-987-3103

Jonesboro Muni Radio Frequencies

Jonesboro Muni (Airport) Radio Frequencies

UNICOM 123
Common traffic advisory frequency (CTAF) 123